Time;durP1;ratioP1;P1;durP2;ratioP2;P2;SDS_P1;SDS_P2;PMS_P1;PMS_P2;Temp;Humidity;BMP_temperature;BMP_pressure;BME280_temperature;BME280_humidity;BME280_pressure;Samples;Min_cycle;Max_cycle;Signal;HPM_P1;HPM_P2
2021/07/10 00:01:12;;;;;;;6.18;2.58;;;17.40;90.50;;;;;;3532355;40;20036;-66
2021/07/10 00:03:39;;;;;;;3.42;2.35;;;17.40;90.70;;;;;;3532137;40;20026;-67
2021/07/10 00:06:05;;;;;;;4.53;2.35;;;17.40;90.60;;;;;;3532406;40;20027;-67
2021/07/10 00:08:31;;;;;;;4.95;2.40;;;17.50;90.90;;;;;;3532167;40;20435;-67
2021/07/10 00:10:57;;;;;;;5.30;2.28;;;17.50;90.50;;;;;;3532433;40;20082;-67
2021/07/10 00:13:23;;;;;;;5.22;2.22;;;17.50;90.40;;;;;;3531868;40;20049;-67
2021/07/10 00:15:49;;;;;;;3.63;2.20;;;17.40;90.40;;;;;;3531424;40;20195;-67
2021/07/10 00:18:15;;;;;;;5.05;2.35;;;17.30;90.50;;;;;;3533133;40;20732;-66
2021/07/10 00:20:41;;;;;;;5.05;2.40;;;17.30;90.80;;;;;;3533556;40;20103;-67
2021/07/10 00:23:06;;;;;;;3.67;2.40;;;17.40;91.10;;;;;;3533322;40;20054;-67
2021/07/10 00:25:32;;;;;;;6.85;2.50;;;17.40;91.10;;;;;;3532290;40;20030;-71
2021/07/10 00:27:58;;;;;;;3.47;2.17;;;17.40;90.60;;;;;;3532244;40;20521;-67
2021/07/10 00:30:24;;;;;;;2.67;2.35;;;17.40;90.70;;;;;;3533703;40;20049;-67
2021/07/10 00:32:51;;;;;;;2.20;1.98;;;17.50;91.00;;;;;;3533414;40;20046;-67
2021/07/10 00:35:17;;;;;;;2.75;2.35;;;17.50;90.80;;;;;;3533945;40;20046;-67
2021/07/10 00:37:44;;;;;;;2.40;2.20;;;17.50;90.70;;;;;;3532778;40;20678;-66
2021/07/10 00:40:12;;;;;;;3.13;2.53;;;17.50;90.20;;;;;;3533626;40;20042;-67
2021/07/10 00:42:39;;;;;;;3.17;2.50;;;17.50;90.30;;;;;;3532826;40;20042;-67
2021/07/10 00:45:07;;;;;;;3.83;2.92;;;17.50;90.80;;;;;;3532194;40;20819;-67
2021/07/10 00:47:33;;;;;;;4.07;2.92;;;17.50;90.50;;;;;;3531777;40;20070;-67
2021/07/10 00:49:59;;;;;;;2.55;2.35;;;17.50;90.50;;;;;;3532373;40;20038;-67
2021/07/10 00:52:26;;;;;;;3.78;3.10;;;17.50;90.40;;;;;;3533400;40;20039;-67
2021/07/10 00:54:53;;;;;;;3.92;3.22;;;17.50;90.50;;;;;;3532439;40;20808;-67
2021/07/10 00:57:19;;;;;;;4.35;3.00;;;17.40;90.60;;;;;;3531791;40;20330;-67
2021/07/10 00:59:46;;;;;;;6.32;3.60;;;17.40;90.70;;;;;;3532437;40;20124;-68
2021/07/10 01:02:11;;;;;;;7.20;4.53;;;17.40;90.80;;;;;;3533525;40;20328;-68
2021/07/10 01:04:38;;;;;;;5.43;4.10;;;17.40;90.80;;;;;;3532769;40;20031;-67
2021/07/10 01:07:04;;;;;;;6.72;3.90;;;17.40;90.90;;;;;;3533080;40;20696;-68
2021/07/10 01:09:31;;;;;;;5.82;4.13;;;17.40;91.10;;;;;;3534968;40;20046;-68
2021/07/10 01:11:57;;;;;;;7.00;3.85;;;17.40;91.20;;;;;;3536628;40;20047;-68
2021/07/10 01:14:23;;;;;;;7.60;3.85;;;17.30;91.30;;;;;;3534434;40;20092;-68
2021/07/10 01:16:49;;;;;;;5.55;4.72;;;17.40;91.40;;;;;;3533372;40;20035;-68
2021/07/10 01:19:28;;;;;;;7.53;4.70;;;17.40;91.40;;;;;;3536319;40;20035;-67
2021/07/10 01:21:55;;;;;;;5.82;5.32;;;17.40;91.60;;;;;;3534829;40;20027;-67
2021/07/10 01:24:21;;;;;;;9.20;5.60;;;17.40;91.70;;;;;;3534775;40;20599;-67
2021/07/10 01:26:47;;;;;;;6.43;5.82;;;17.30;91.80;;;;;;3533640;40;20065;-68
2021/07/10 01:29:12;;;;;;;7.47;5.97;;;17.40;91.90;;;;;;3534984;40;20031;-67
2021/07/10 01:31:39;;;;;;;6.68;5.85;;;17.40;91.90;;;;;;3534591;40;20577;-67
2021/07/10 01:34:04;;;;;;;7.45;6.32;;;17.40;92.00;;;;;;3535692;40;20713;-67
2021/07/10 01:36:30;;;;;;;8.23;6.65;;;17.40;92.00;;;;;;3535361;40;20043;-68
2021/07/10 01:38:56;;;;;;;9.45;7.15;;;17.40;92.00;;;;;;3533023;40;20043;-67
2021/07/10 01:41:22;;;;;;;7.95;6.55;;;17.40;92.00;;;;;;3534648;40;20784;-68
2021/07/10 01:43:47;;;;;;;8.57;6.57;;;17.40;92.10;;;;;;3534508;40;20038;-67
2021/07/10 01:46:13;;;;;;;7.95;6.78;;;17.40;92.20;;;;;;3534582;40;20430;-67
2021/07/10 01:48:39;;;;;;;10.73;6.93;;;17.40;92.20;;;;;;3533982;40;20038;-68
2021/07/10 01:51:04;;;;;;;8.63;6.90;;;17.40;92.20;;;;;;3536022;40;20413;-68
2021/07/10 01:53:30;;;;;;;10.48;7.38;;;17.50;92.30;;;;;;3534019;40;20039;-68
2021/07/10 01:55:55;;;;;;;9.45;7.30;;;17.50;92.20;;;;;;3533776;40;20311;-67
2021/07/10 01:58:21;;;;;;;11.68;7.55;;;17.50;92.30;;;;;;3534611;40;20034;-67
2021/07/10 02:00:47;;;;;;;8.98;7.57;;;17.50;92.20;;;;;;3529718;40;20038;-69
2021/07/10 02:03:14;;;;;;;9.80;7.63;;;17.50;92.30;;;;;;3533928;40;20034;-67
2021/07/10 02:05:41;;;;;;;10.65;7.60;;;17.50;92.30;;;;;;3531850;40;20062;-67
2021/07/10 02:08:09;;;;;;;9.45;7.72;;;17.60;92.20;;;;;;3535455;40;20608;-67
2021/07/10 02:10:35;;;;;;;8.57;7.05;;;17.60;92.20;;;;;;3533509;40;20035;-68
2021/07/10 02:13:10;;;;;;;8.73;7.25;;;17.60;92.20;;;;;;3535365;40;20026;-68
2021/07/10 02:15:36;;;;;;;10.13;8.23;;;17.70;92.20;;;;;;3535420;40;20081;-67
2021/07/10 02:18:03;;;;;;;14.98;8.50;;;17.60;92.10;;;;;;3534737;40;20411;-67
2021/07/10 02:20:29;;;;;;;11.77;8.02;;;17.70;92.20;;;;;;3527376;40;20031;-68
2021/07/10 02:22:56;;;;;;;9.15;7.80;;;17.70;92.10;;;;;;3531533;40;20332;-67
2021/07/10 02:25:23;;;;;;;11.90;7.82;;;17.70;92.10;;;;;;3533434;40;20128;-68
2021/07/10 02:27:50;;;;;;;12.82;7.95;;;17.70;91.90;;;;;;3532294;40;20067;-67
2021/07/10 02:30:26;;;;;;;12.77;8.85;;;17.70;92.00;;;;;;3536742;40;20027;-67
2021/07/10 02:32:54;;;;;;;10.48;7.82;;;17.70;92.00;;;;;;3533213;40;20497;-67
2021/07/10 02:35:20;;;;;;;9.73;8.00;;;17.70;92.00;;;;;;3533504;40;20130;-67
2021/07/10 02:37:48;;;;;;;11.65;8.10;;;17.70;92.00;;;;;;3535315;40;20031;-67
2021/07/10 02:40:18;;;;;;;9.93;8.10;;;17.70;92.00;;;;;;3533297;40;20023;-68
2021/07/10 02:42:44;;;;;;;9.60;7.80;;;17.70;92.00;;;;;;3533072;40;20115;-68
2021/07/10 02:45:12;;;;;;;10.52;7.95;;;17.70;92.00;;;;;;3535892;40;20131;-67
2021/07/10 02:47:39;;;;;;;11.57;9.02;;;17.70;92.00;;;;;;3534150;40;20050;-67
2021/07/10 02:50:09;;;;;;;10.27;9.02;;;17.80;92.00;;;;;;3532316;40;20791;-68
2021/07/10 02:52:34;;;;;;;11.23;8.73;;;17.80;92.00;;;;;;3534926;40;20087;-68
2021/07/10 02:55:00;;;;;;;11.75;8.60;;;17.80;91.90;;;;;;3534114;40;20413;-67
2021/07/10 02:57:26;;;;;;;12.50;9.02;;;17.70;92.00;;;;;;3533492;40;20467;-67
2021/07/10 02:59:52;;;;;;;11.90;8.65;;;17.70;92.00;;;;;;3533452;40;20779;-67
2021/07/10 03:02:17;;;;;;;11.82;8.65;;;17.80;92.00;;;;;;3529513;40;20474;-67
2021/07/10 03:04:45;;;;;;;13.15;9.77;;;17.70;92.00;;;;;;3533850;40;20027;-67
2021/07/10 03:07:11;;;;;;;10.80;8.70;;;17.80;92.00;;;;;;3533169;40;20023;-68
2021/07/10 03:09:37;;;;;;;12.30;9.75;;;17.70;92.00;;;;;;3530570;40;20050;-67
2021/07/10 03:12:04;;;;;;;11.30;8.77;;;17.80;92.00;;;;;;3532009;40;20066;-67
2021/07/10 03:14:30;;;;;;;11.90;9.27;;;17.80;92.00;;;;;;3531174;40;20462;-68
2021/07/10 03:16:55;;;;;;;15.02;9.77;;;17.80;91.90;;;;;;3533425;40;20089;-67
2021/07/10 03:19:21;;;;;;;15.43;9.98;;;17.80;91.90;;;;;;3532942;40;20031;-67
2021/07/10 03:21:47;;;;;;;13.35;9.00;;;17.80;91.80;;;;;;3532419;40;20118;-68
2021/07/10 03:24:14;;;;;;;12.45;8.73;;;17.80;91.80;;;;;;3533078;40;20140;-68
2021/07/10 03:26:39;;;;;;;11.40;9.23;;;17.80;91.90;;;;;;3531716;40;20062;-68
2021/07/10 03:29:05;;;;;;;11.30;9.02;;;17.80;91.80;;;;;;3534015;40;20050;-68
2021/07/10 03:31:31;;;;;;;12.57;9.63;;;17.80;91.80;;;;;;3533799;40;20037;-67
2021/07/10 03:33:56;;;;;;;14.63;10.13;;;17.80;91.70;;;;;;3532532;40;20092;-67
2021/07/10 03:36:25;;;;;;;15.68;10.02;;;17.80;91.80;;;;;;3531666;40;20039;-68
2021/07/10 03:38:55;;;;;;;16.42;10.23;;;17.80;91.80;;;;;;3533373;40;20027;-68
2021/07/10 03:41:20;;;;;;;12.15;9.25;;;17.70;91.70;;;;;;3515791;40;20448;-68
2021/07/10 03:43:46;;;;;;;12.18;9.23;;;17.70;91.80;;;;;;3532019;40;20054;-67
2021/07/10 03:46:12;;;;;;;10.73;9.23;;;17.70;91.80;;;;;;3532971;40;20497;-67
2021/07/10 03:48:38;;;;;;;11.98;8.88;;;17.70;91.80;;;;;;3533185;40;20051;-67
2021/07/10 03:51:04;;;;;;;12.00;9.15;;;17.70;91.60;;;;;;3534013;40;20045;-68
2021/07/10 03:53:30;;;;;;;9.50;8.43;;;17.70;91.60;;;;;;3534656;40;20049;-67
2021/07/10 03:55:57;;;;;;;13.32;8.77;;;17.70;91.60;;;;;;3532238;40;20339;-67
2021/07/10 03:58:23;;;;;;;10.10;8.32;;;17.70;91.50;;;;;;3531397;40;20049;-67
2021/07/10 04:00:48;;;;;;;15.05;9.20;;;17.70;91.60;;;;;;3532565;40;20471;-67
2021/07/10 04:03:14;;;;;;;11.23;8.93;;;17.70;91.50;;;;;;3533427;40;20120;-67
2021/07/10 04:05:40;;;;;;;11.05;9.10;;;17.70;91.50;;;;;;3532295;40;20035;-68
2021/07/10 04:08:06;;;;;;;10.45;8.77;;;17.60;91.60;;;;;;3530449;40;20030;-68
2021/07/10 04:10:31;;;;;;;10.25;8.25;;;17.60;91.60;;;;;;3533426;40;20137;-67
2021/07/10 04:12:57;;;;;;;19.00;9.73;;;17.60;91.60;;;;;;3534019;40;20038;-68
2021/07/10 04:15:23;;;;;;;12.15;9.25;;;17.60;91.50;;;;;;3534557;40;20050;-68
2021/07/10 04:17:49;;;;;;;14.25;10.10;;;17.60;91.50;;;;;;3530332;40;20051;-67
2021/07/10 04:20:16;;;;;;;12.50;10.25;;;17.70;91.60;;;;;;3531434;40;20781;-68
2021/07/10 04:22:43;;;;;;;10.88;9.52;;;17.70;91.50;;;;;;3534062;40;20130;-67
2021/07/10 04:25:12;;;;;;;14.63;10.32;;;17.70;91.50;;;;;;3532500;40;20050;-67
2021/07/10 04:27:38;;;;;;;16.20;10.45;;;17.70;91.50;;;;;;3532592;40;20236;-68
2021/07/10 04:30:06;;;;;;;14.73;10.48;;;17.70;91.50;;;;;;3533315;40;20118;-67
2021/07/10 04:32:32;;;;;;;14.32;11.05;;;17.70;91.40;;;;;;3535598;40;20438;-68
2021/07/10 04:34:58;;;;;;;15.80;10.75;;;17.80;91.40;;;;;;3533025;40;20027;-67
2021/07/10 04:37:23;;;;;;;16.52;11.18;;;17.70;91.30;;;;;;3533387;40;20038;-68
2021/07/10 04:39:49;;;;;;;18.35;11.75;;;17.80;91.30;;;;;;3532615;40;20038;-68
2021/07/10 04:42:15;;;;;;;16.52;11.45;;;17.80;91.40;;;;;;3533599;40;20030;-67
2021/07/10 04:44:41;;;;;;;16.35;11.68;;;17.70;91.40;;;;;;3534437;40;20132;-68
2021/07/10 04:47:06;;;;;;;17.25;11.23;;;17.80;91.30;;;;;;3533016;40;20093;-68
2021/07/10 04:49:32;;;;;;;17.73;12.57;;;17.80;91.40;;;;;;3535155;40;20050;-68
2021/07/10 04:51:59;;;;;;;16.48;11.90;;;17.80;91.10;;;;;;3533619;40;20023;-67
2021/07/10 04:54:24;;;;;;;19.05;13.18;;;17.80;91.10;;;;;;3533871;40;20730;-67
2021/07/10 04:56:50;;;;;;;16.40;12.27;;;17.80;91.10;;;;;;3535241;40;20043;-68
2021/07/10 04:59:16;;;;;;;17.65;11.80;;;17.80;91.10;;;;;;3534271;40;20068;-68
2021/07/10 05:01:41;;;;;;;17.35;12.55;;;17.90;91.20;;;;;;3533066;40;20019;-68
2021/07/10 05:04:07;;;;;;;16.55;12.20;;;17.90;91.10;;;;;;3535795;40;20310;-68
2021/07/10 05:06:33;;;;;;;15.98;12.18;;;17.90;90.90;;;;;;3533017;40;20717;-68
2021/07/10 05:08:58;;;;;;;15.15;11.50;;;17.90;90.90;;;;;;3533397;40;20593;-67
2021/07/10 05:11:24;;;;;;;17.65;12.38;;;17.90;91.00;;;;;;3531787;40;20328;-68
2021/07/10 05:13:50;;;;;;;15.00;11.07;;;17.90;90.80;;;;;;3534669;40;20432;-67
2021/07/10 05:16:15;;;;;;;14.30;10.93;;;17.90;90.60;;;;;;3533880;40;20035;-68
2021/07/10 05:18:41;;;;;;;17.13;11.52;;;17.90;90.60;;;;;;3531607;40;20027;-68
2021/07/10 05:21:07;;;;;;;15.98;11.27;;;17.90;90.80;;;;;;3533141;40;20051;-67
2021/07/10 05:23:32;;;;;;;15.55;10.82;;;17.90;90.80;;;;;;3535128;40;20039;-68
2021/07/10 05:25:58;;;;;;;14.55;11.13;;;17.90;90.70;;;;;;3535845;40;20027;-68
2021/07/10 05:28:24;;;;;;;15.77;11.98;;;17.90;90.70;;;;;;3534256;40;20035;-68
2021/07/10 05:30:50;;;;;;;14.48;11.07;;;17.90;90.70;;;;;;3534799;40;20035;-67
2021/07/10 05:33:17;;;;;;;15.73;11.30;;;18.00;90.70;;;;;;3535449;40;20037;-67
2021/07/10 05:35:45;;;;;;;16.67;11.20;;;18.10;90.50;;;;;;3534675;40;20040;-67
2021/07/10 05:38:14;;;;;;;15.15;11.18;;;18.00;90.30;;;;;;3532556;40;20022;-67
2021/07/10 05:40:40;;;;;;;14.60;11.05;;;18.00;90.40;;;;;;3536571;40;20027;-67
2021/07/10 05:43:06;;;;;;;14.52;11.05;;;18.00;90.40;;;;;;3532589;40;20027;-68
2021/07/10 05:45:32;;;;;;;15.90;11.30;;;18.00;90.40;;;;;;3535954;40;20041;-67
2021/07/10 05:47:57;;;;;;;13.30;11.18;;;18.10;90.30;;;;;;3534902;40;20035;-67
2021/07/10 05:50:23;;;;;;;14.65;10.38;;;18.00;90.30;;;;;;3534627;40;20055;-67
2021/07/10 05:52:49;;;;;;;15.45;11.02;;;18.10;90.30;;;;;;3534192;40;20143;-68
2021/07/10 05:55:15;;;;;;;11.70;9.60;;;18.10;89.90;;;;;;3533069;40;20108;-68
2021/07/10 05:57:40;;;;;;;12.15;9.68;;;18.10;89.80;;;;;;3535456;40;20030;-68
2021/07/10 06:00:09;;;;;;;11.18;9.50;;;18.10;89.90;;;;;;3533220;40;20043;-67
2021/07/10 06:02:35;;;;;;;13.32;10.45;;;18.20;90.10;;;;;;3532549;40;20043;-68
2021/07/10 06:05:02;;;;;;;11.93;9.38;;;18.20;90.10;;;;;;3531627;40;20154;-68
2021/07/10 06:07:27;;;;;;;11.75;9.70;;;18.20;90.20;;;;;;3532217;40;20066;-68
2021/07/10 06:09:53;;;;;;;14.55;9.65;;;18.30;89.90;;;;;;3533080;40;20065;-68
2021/07/10 06:12:19;;;;;;;14.02;9.63;;;18.30;89.20;;;;;;3531109;40;20490;-67
2021/07/10 06:14:44;;;;;;;14.60;9.85;;;18.30;89.00;;;;;;3534320;40;20026;-68
2021/07/10 06:17:10;;;;;;;14.73;9.60;;;18.30;89.30;;;;;;3532285;40;20027;-67
2021/07/10 06:19:36;;;;;;;14.35;9.38;;;18.30;89.40;;;;;;3534149;40;20047;-67
2021/07/10 06:22:02;;;;;;;16.73;9.68;;;18.40;88.80;;;;;;3529046;40;20038;-69
2021/07/10 06:24:27;;;;;;;13.93;9.13;;;18.40;88.60;;;;;;3532075;40;20351;-72
2021/07/10 06:26:53;;;;;;;12.75;9.05;;;18.40;89.30;;;;;;3530649;40;20070;-68
2021/07/10 06:29:19;;;;;;;14.30;9.20;;;18.50;88.40;;;;;;3531770;40;20079;-68
2021/07/10 06:31:45;;;;;;;14.10;9.75;;;18.50;88.20;;;;;;3531707;40;20039;-68
2021/07/10 06:34:11;;;;;;;11.77;9.40;;;18.50;88.40;;;;;;3534619;40;20030;-68
2021/07/10 06:36:38;;;;;;;15.75;10.00;;;18.50;88.50;;;;;;3533417;40;20053;-67
2021/07/10 06:39:04;;;;;;;11.27;9.38;;;18.60;87.90;;;;;;3532766;40;20043;-68
2021/07/10 06:41:30;;;;;;;15.32;9.20;;;18.70;87.80;;;;;;3534430;40;20023;-68
2021/07/10 06:43:56;;;;;;;14.93;9.45;;;18.70;87.20;;;;;;3531795;40;20039;-69
2021/07/10 06:46:22;;;;;;;14.02;9.45;;;18.70;87.00;;;;;;3535132;40;20038;-69
2021/07/10 06:48:47;;;;;;;11.70;8.60;;;18.80;87.30;;;;;;3533810;40;20035;-69
2021/07/10 06:51:13;;;;;;;10.80;9.10;;;18.90;87.00;;;;;;3533784;40;20680;-69
2021/07/10 06:53:39;;;;;;;12.70;9.23;;;18.90;86.70;;;;;;3533691;40;20787;-70
2021/07/10 06:56:05;;;;;;;11.68;8.48;;;18.90;86.50;;;;;;3530071;40;20042;-69
2021/07/10 06:58:31;;;;;;;10.43;8.15;;;18.90;86.10;;;;;;3534955;40;20471;-69
2021/07/10 07:00:57;;;;;;;12.90;8.98;;;18.90;86.10;;;;;;3532568;40;20033;-69
2021/07/10 07:03:22;;;;;;;10.57;8.68;;;19.00;85.20;;;;;;3535089;40;20035;-69
2021/07/10 07:05:48;;;;;;;11.23;8.43;;;19.00;86.00;;;;;;3533377;40;20113;-69
2021/07/10 07:08:14;;;;;;;16.27;9.05;;;19.10;86.10;;;;;;3532325;40;20043;-69
2021/07/10 07:10:39;;;;;;;12.77;8.35;;;19.10;85.70;;;;;;3533270;40;20035;-69
2021/07/10 07:13:05;;;;;;;9.65;8.23;;;19.20;84.20;;;;;;3534875;40;20066;-69
2021/07/10 07:15:31;;;;;;;11.43;8.93;;;19.30;84.20;;;;;;3533438;40;20041;-69
2021/07/10 07:17:56;;;;;;;15.13;9.20;;;19.40;84.90;;;;;;3531758;40;20033;-69
2021/07/10 07:20:22;;;;;;;11.57;7.97;;;19.50;84.60;;;;;;3534754;40;20035;-69
2021/07/10 07:22:49;;;;;;;12.20;8.13;;;19.60;83.00;;;;;;3533056;40;20460;-69
2021/07/10 07:25:18;;;;;;;12.20;7.88;;;19.70;83.20;;;;;;3533727;40;20034;-70
2021/07/10 07:27:45;;;;;;;12.20;7.63;;;19.80;83.80;;;;;;3531783;40;20034;-69
2021/07/10 07:30:11;;;;;;;8.25;6.85;;;19.80;82.60;;;;;;3533920;40;20039;-70
2021/07/10 07:32:37;;;;;;;10.60;6.90;;;19.80;82.50;;;;;;3533787;40;20049;-70
2021/07/10 07:35:08;;;;;;;10.00;7.00;;;19.80;79.80;;;;;;3532647;40;20046;-70
2021/07/10 07:37:34;;;;;;;11.40;7.90;;;19.80;81.20;;;;;;3533141;40;20447;-70
2021/07/10 07:40:00;;;;;;;8.77;7.75;;;19.80;80.60;;;;;;3534058;40;20084;-70
2021/07/10 07:42:26;;;;;;;14.55;8.30;;;19.80;81.70;;;;;;3535325;40;20035;-70
2021/07/10 07:44:51;;;;;;;10.00;8.40;;;19.80;82.50;;;;;;3534146;40;20043;-70
2021/07/10 07:47:18;;;;;;;8.50;7.53;;;19.90;82.60;;;;;;3532118;40;20627;-69
2021/07/10 07:49:46;;;;;;;12.90;7.70;;;19.90;83.10;;;;;;3532521;40;20042;-70
2021/07/10 07:52:12;;;;;;;9.85;7.78;;;20.10;82.40;;;;;;3534395;40;20124;-70
2021/07/10 07:54:38;;;;;;;12.70;8.18;;;20.30;82.10;;;;;;3532828;40;20068;-70
2021/07/10 07:57:04;;;;;;;10.32;8.38;;;20.50;80.00;;;;;;3534224;40;20167;-70
2021/07/10 07:59:30;;;;;;;12.10;8.77;;;20.60;77.90;;;;;;3534596;40;20103;-70
2021/07/10 08:01:56;;;;;;;13.85;8.93;;;20.70;76.90;;;;;;3523858;40;20041;-70
2021/07/10 08:04:22;;;;;;;15.63;9.25;;;20.70;77.60;;;;;;3533080;40;20043;-70
2021/07/10 08:06:48;;;;;;;10.48;8.75;;;20.70;78.10;;;;;;3535072;40;20366;-70
2021/07/10 08:09:14;;;;;;;10.02;8.13;;;20.80;76.90;;;;;;3532999;40;20049;-70
2021/07/10 08:11:40;;;;;;;10.80;7.30;;;20.80;77.80;;;;;;3532659;40;20042;-70
2021/07/10 08:14:06;;;;;;;11.15;8.10;;;20.80;77.60;;;;;;3534635;40;20026;-69
2021/07/10 08:16:33;;;;;;;10.48;8.00;;;20.80;77.70;;;;;;3532289;40;20033;-69
2021/07/10 08:18:59;;;;;;;11.43;8.32;;;20.80;76.40;;;;;;3524039;40;20071;-68
2021/07/10 08:21:27;;;;;;;14.27;7.53;;;20.90;76.70;;;;;;3532665;40;20019;-68
2021/07/10 08:23:54;;;;;;;13.40;7.97;;;20.90;75.60;;;;;;3533437;40;20039;-68
2021/07/10 08:26:20;;;;;;;9.88;7.82;;;20.90;76.40;;;;;;3536517;40;20046;-68
2021/07/10 08:28:46;;;;;;;12.52;7.97;;;20.90;77.30;;;;;;3533785;40;20320;-69
2021/07/10 08:31:12;;;;;;;10.93;7.38;;;21.00;75.60;;;;;;3534561;40;20034;-68
2021/07/10 08:33:38;;;;;;;9.25;7.75;;;21.00;75.40;;;;;;3531086;40;20397;-68
2021/07/10 08:36:04;;;;;;;10.60;7.43;;;21.10;75.00;;;;;;3531404;40;20067;-69
2021/07/10 08:38:30;;;;;;;10.27;7.50;;;21.10;76.10;;;;;;3533564;40;20027;-69
2021/07/10 08:40:56;;;;;;;13.85;7.57;;;21.20;75.10;;;;;;3532587;40;20031;-68
2021/07/10 08:43:22;;;;;;;9.52;7.78;;;21.30;74.70;;;;;;3534891;40;20140;-69
2021/07/10 08:45:49;;;;;;;10.77;8.52;;;21.40;74.30;;;;;;3532786;40;20400;-68
2021/07/10 08:48:16;;;;;;;10.73;7.03;;;21.50;74.20;;;;;;3533634;40;20046;-69
2021/07/10 08:50:42;;;;;;;12.02;8.10;;;21.80;74.30;;;;;;3533895;40;20080;-69
2021/07/10 08:53:09;;;;;;;15.25;7.00;;;21.90;73.40;;;;;;3524245;40;20059;-69
2021/07/10 08:55:36;;;;;;;10.57;7.63;;;22.10;72.70;;;;;;3534462;40;20038;-69
2021/07/10 08:58:02;;;;;;;10.45;7.10;;;22.10;72.20;;;;;;3535318;40;20362;-69
2021/07/10 09:00:36;;;;;;;11.43;7.72;;;22.20;70.30;;;;;;3533611;40;20528;-69
2021/07/10 09:03:02;;;;;;;8.90;7.20;;;22.10;72.00;;;;;;3533773;40;20026;-68
2021/07/10 09:05:29;;;;;;;10.60;8.25;;;22.10;70.90;;;;;;3536045;40;20314;-69
2021/07/10 09:08:12;;;;;;;12.50;7.75;;;22.10;71.80;;;;;;3532091;40;20047;-70
2021/07/10 09:10:41;;;;;;;9.05;6.72;;;22.20;71.20;;;;;;3525410;40;20446;-69
2021/07/10 09:13:07;;;;;;;9.88;7.75;;;22.20;71.40;;;;;;3533894;40;20035;-69
2021/07/10 09:15:33;;;;;;;8.45;7.25;;;22.30;72.30;;;;;;3531158;40;20037;-71
2021/07/10 09:17:59;;;;;;;9.20;6.75;;;22.40;72.20;;;;;;3530487;40;20114;-70
2021/07/10 09:20:28;;;;;;;9.13;7.32;;;22.50;70.60;;;;;;3532633;40;20103;-71
2021/07/10 09:22:55;;;;;;;9.07;7.00;;;22.60;70.10;;;;;;3530096;40;20038;-70
2021/07/10 09:25:29;;;;;;;11.00;7.03;;;22.60;69.10;;;;;;3534158;40;20399;-71
2021/07/10 09:27:58;;;;;;;11.70;6.90;;;22.70;69.60;;;;;;3531334;40;20034;-69
2021/07/10 09:30:37;;;;;;;12.63;8.40;;;22.70;70.80;;;;;;3532975;40;20099;-68
2021/07/10 09:33:16;;;;;;;13.88;7.25;;;22.70;68.90;;;;;;3534552;40;20058;-68
2021/07/10 09:35:52;;;;;;;9.15;6.85;;;22.50;69.50;;;;;;3533988;40;20040;-68
2021/07/10 09:38:23;;;;;;;10.18;6.40;;;22.50;68.80;;;;;;3530530;40;20068;-68
2021/07/10 09:41:04;;;;;;;9.57;6.75;;;22.60;68.50;;;;;;3533803;40;20055;-67
2021/07/10 09:43:33;;;;;;;6.60;5.90;;;22.70;68.60;;;;;;3531817;40;20031;-79
2021/07/10 09:46:02;;;;;;;8.50;6.38;;;22.70;68.20;;;;;;3532126;40;20037;-69
2021/07/10 09:48:30;;;;;;;7.90;6.50;;;22.70;68.60;;;;;;3534552;40;20030;-69
2021/07/10 09:51:35;;;;;;;7.95;6.57;;;22.70;68.10;;;;;;3531398;40;20566;-69
2021/07/10 09:54:02;;;;;;;7.30;5.50;;;22.70;68.50;;;;;;3521108;40;20035;-69
2021/07/10 09:56:30;;;;;;;9.18;6.53;;;22.70;66.60;;;;;;3534515;40;20081;-69
2021/07/10 09:58:56;;;;;;;11.38;6.88;;;22.70;68.60;;;;;;3531129;40;20035;-69
2021/07/10 10:01:35;;;;;;;13.93;6.65;;;22.70;68.90;;;;;;3534032;40;20047;-69
2021/07/10 10:04:18;;;;;;;8.27;6.30;;;22.80;68.10;;;;;;3533651;40;20034;-69
2021/07/10 10:06:44;;;;;;;12.00;6.43;;;22.90;68.10;;;;;;3532640;40;20630;-69
2021/07/10 10:09:17;;;;;;;7.15;6.00;;;23.00;67.40;;;;;;3531933;40;20116;-69
2021/07/10 10:12:05;;;;;;;11.45;6.18;;;23.20;67.00;;;;;;3531623;40;20031;-69
2021/07/10 10:14:35;;;;;;;8.80;5.60;;;23.20;65.80;;;;;;3532852;40;20043;-69
2021/07/10 10:17:01;;;;;;;7.63;5.65;;;23.20;66.10;;;;;;3532291;40;20027;-69
2021/07/10 10:19:29;;;;;;;9.32;5.20;;;23.20;66.60;;;;;;3531940;40;20717;-69
2021/07/10 10:21:58;;;;;;;8.20;5.43;;;23.30;64.60;;;;;;3533808;40;20053;-69
2021/07/10 10:24:25;;;;;;;7.40;4.97;;;23.30;64.00;;;;;;3532173;40;20296;-68
2021/07/10 10:26:52;;;;;;;8.50;5.63;;;23.30;65.30;;;;;;3531927;40;20482;-67
2021/07/10 10:29:20;;;;;;;9.20;5.68;;;23.30;65.00;;;;;;3534878;40;20050;-69
2021/07/10 10:31:47;;;;;;;6.05;5.25;;;23.30;66.50;;;;;;3532847;40;20039;-68
2021/07/10 10:34:14;;;;;;;7.30;4.82;;;23.30;68.20;;;;;;3533562;40;20037;-67
2021/07/10 10:36:43;;;;;;;6.53;5.05;;;23.30;63.70;;;;;;3532553;40;20039;-68
2021/07/10 10:39:22;;;;;;;5.72;5.03;;;23.30;62.90;;;;;;3530862;40;20612;-67
2021/07/10 10:42:00;;;;;;;6.53;4.93;;;23.30;64.60;;;;;;3532026;40;20050;-68
2021/07/10 10:44:33;;;;;;;12.10;5.53;;;23.40;62.20;;;;;;3523148;40;20139;-68
2021/07/10 10:46:59;;;;;;;8.85;5.40;;;23.40;64.50;;;;;;3524886;40;20050;-67
2021/07/10 10:49:49;;;;;;;7.43;5.03;;;23.50;62.90;;;;;;3533731;40;20037;-67
2021/07/10 10:52:34;;;;;;;8.02;4.60;;;23.40;64.70;;;;;;3532673;40;20059;-68
2021/07/10 10:55:16;;;;;;;7.40;4.97;;;23.50;65.00;;;;;;3531893;40;20319;-66
2021/07/10 10:57:52;;;;;;;5.95;4.70;;;23.60;64.10;;;;;;3534093;40;20071;-69
2021/07/10 11:00:24;;;;;;;9.23;4.63;;;23.80;61.30;;;;;;3531921;40;20023;-70
2021/07/10 11:02:58;;;;;;;7.15;4.50;;;23.90;61.90;;;;;;3529039;40;20702;-71
2021/07/10 11:05:33;;;;;;;5.93;4.60;;;23.90;59.40;;;;;;3529780;40;20031;-70
2021/07/10 11:08:20;;;;;;;7.90;4.50;;;23.90;59.50;;;;;;3532198;40;20034;-70
2021/07/10 11:10:57;;;;;;;8.55;5.20;;;23.90;62.00;;;;;;3531329;40;20078;-70
2021/07/10 11:13:30;;;;;;;4.60;3.53;;;23.90;62.20;;;;;;3531170;40;20079;-70
2021/07/10 11:16:17;;;;;;;6.35;4.30;;;23.80;61.80;;;;;;3532941;40;20031;-71
2021/07/10 11:19:04;;;;;;;5.72;4.35;;;23.70;63.20;;;;;;3533489;40;20030;-72
2021/07/10 11:21:38;;;;;;;4.80;4.10;;;23.80;61.10;;;;;;3519193;40;20606;-70
2021/07/10 11:24:16;;;;;;;7.18;4.80;;;23.90;60.70;;;;;;3533674;40;20459;-70
2021/07/10 11:27:03;;;;;;;5.53;4.28;;;23.90;60.70;;;;;;3529652;40;20038;-71
2021/07/10 11:29:40;;;;;;;5.97;4.80;;;23.90;60.60;;;;;;3529267;40;20045;-72
2021/07/10 11:32:12;;;;;;;6.28;4.32;;;23.90;63.40;;;;;;3530250;40;20440;-70
2021/07/10 11:34:46;;;;;;;6.43;5.75;;;23.90;59.90;;;;;;3523592;40;20038;-71
2021/07/10 11:37:20;;;;;;;5.80;4.47;;;23.80;62.40;;;;;;3528568;40;20066;-72
2021/07/10 11:39:46;;;;;;;6.28;4.55;;;23.80;60.30;;;;;;3533730;40;20040;-71
2021/07/10 11:42:18;;;;;;;5.18;4.68;;;23.80;61.80;;;;;;3543432;40;20129;-70
2021/07/10 11:44:46;;;;;;;6.25;4.78;;;23.80;60.40;;;;;;3524467;40;20041;-72
2021/07/10 11:47:12;;;;;;;5.95;4.82;;;23.80;60.80;;;;;;3528247;40;20524;-72
2021/07/10 11:49:42;;;;;;;5.75;4.07;;;23.80;61.40;;;;;;3531412;40;20416;-72
2021/07/10 11:52:19;;;;;;;7.50;4.22;;;23.90;60.80;;;;;;3522997;40;20074;-72
2021/07/10 11:54:51;;;;;;;4.68;4.28;;;24.10;58.50;;;;;;3531460;40;20502;-71
2021/07/10 11:57:19;;;;;;;4.75;4.03;;;24.10;58.50;;;;;;3538673;40;20152;-71
2021/07/10 11:59:45;;;;;;;5.82;4.28;;;24.10;57.60;;;;;;3531847;40;20039;-72
2021/07/10 12:02:16;;;;;;;5.40;4.03;;;24.10;57.50;;;;;;3532968;40;20030;-72
2021/07/10 12:04:58;;;;;;;5.10;4.20;;;24.00;58.20;;;;;;3534657;40;20066;-70
2021/07/10 12:07:25;;;;;;;5.07;4.57;;;24.10;60.00;;;;;;3530877;40;20384;-71
2021/07/10 12:09:52;;;;;;;7.20;4.18;;;24.20;60.60;;;;;;3532622;40;20034;-71
2021/07/10 12:12:18;;;;;;;8.10;4.88;;;24.30;58.30;;;;;;3533270;40;20039;-71
2021/07/10 12:14:54;;;;;;;5.57;4.47;;;24.30;59.30;;;;;;3533810;40;20054;-73
2021/07/10 12:17:21;;;;;;;5.05;4.18;;;24.30;61.30;;;;;;3532672;40;20027;-70
2021/07/10 12:19:48;;;;;;;4.90;4.28;;;24.40;59.90;;;;;;3529366;40;20035;-71
2021/07/10 12:22:14;;;;;;;5.35;4.43;;;24.60;58.80;;;;;;3532369;40;20031;-71
2021/07/10 12:24:41;;;;;;;5.25;3.83;;;24.70;59.80;;;;;;3534442;40;20095;-70
2021/07/10 12:27:09;;;;;;;5.97;4.07;;;24.80;56.20;;;;;;3533288;40;20931;-71
2021/07/10 12:29:34;;;;;;;6.53;4.50;;;24.80;58.20;;;;;;3533959;40;20039;-70
2021/07/10 12:32:00;;;;;;;5.03;4.53;;;24.80;57.10;;;;;;3533384;40;20027;-70
2021/07/10 12:34:26;;;;;;;4.38;3.70;;;24.80;58.10;;;;;;3531172;40;20060;-70
2021/07/10 12:36:52;;;;;;;6.35;3.53;;;24.80;56.30;;;;;;3534935;40;20086;-69
2021/07/10 12:39:20;;;;;;;5.43;4.20;;;24.80;57.50;;;;;;3534089;40;20071;-70
2021/07/10 12:41:54;;;;;;;4.43;3.63;;;24.90;56.90;;;;;;3530718;40;20290;-70
2021/07/10 12:44:32;;;;;;;4.13;3.40;;;25.00;56.30;;;;;;3532126;40;20054;-70